createdAt,value
2019-04-16T00:00:00.301Z,0
2019-04-16T00:01:00.274Z,0
2019-04-16T00:01:59.349Z,0
2019-04-16T00:02:59.188Z,0
2019-04-16T00:03:59.277Z,0
2019-04-16T00:04:59.320Z,0
2019-04-16T00:05:59.804Z,0
2019-04-16T00:06:59.339Z,0
2019-04-16T00:07:59.447Z,0
2019-04-16T00:09:00.431Z,0
2019-04-16T00:09:59.636Z,0
2019-04-16T00:10:59.695Z,0
2019-04-16T00:11:59.857Z,0
2019-04-16T00:12:59.842Z,0
2019-04-16T00:14:03.380Z,0
2019-04-16T00:14:59.853Z,0
2019-04-16T00:16:00.988Z,0
2019-04-16T00:16:59.859Z,0
2019-04-16T00:17:59.982Z,0
2019-04-16T00:19:04.124Z,0
2019-04-16T00:20:00.062Z,0
2019-04-16T00:21:00.168Z,0
2019-04-16T00:22:01.158Z,0
2019-04-16T00:23:01.350Z,0
2019-04-16T00:24:00.278Z,0
2019-04-16T00:25:00.334Z,0
2019-04-16T00:26:00.361Z,0
2019-04-16T00:27:00.355Z,0
2019-04-16T00:28:00.821Z,0
2019-04-16T00:29:02.014Z,0
2019-04-16T00:30:03.824Z,0
2019-04-16T00:31:00.788Z,0
2019-04-16T00:32:00.715Z,0
2019-04-16T00:33:01.692Z,0
2019-04-16T00:34:01.725Z,0
2019-04-16T00:35:00.808Z,0
2019-04-16T00:36:00.921Z,0
2019-04-16T00:37:01.040Z,0
2019-04-16T00:38:01.203Z,0
2019-04-16T00:39:01.208Z,0
2019-04-16T00:40:01.254Z,0
2019-04-16T00:41:02.002Z,0
2019-04-16T00:42:01.356Z,0
2019-04-16T00:43:01.393Z,0
2019-04-16T00:44:01.412Z,0
2019-04-16T00:45:01.445Z,0
2019-04-16T00:46:01.530Z,0
2019-04-16T00:47:02.644Z,0
2019-04-16T00:48:01.649Z,0
2019-04-16T00:49:01.606Z,0
2019-04-16T00:50:01.688Z,0
2019-04-16T00:51:01.758Z,0
2019-04-16T00:52:05.343Z,0
2019-04-16T00:53:01.775Z,0
2019-04-16T00:54:02.856Z,0
2019-04-16T00:55:03.006Z,0
2019-04-16T00:56:02.895Z,0
2019-04-16T00:57:02.143Z,0
2019-04-16T00:58:01.972Z,0
2019-04-16T00:59:01.987Z,0
2019-04-16T01:00:02.004Z,0
2019-04-16T01:01:02.175Z,0
2019-04-16T01:02:02.236Z,0
2019-04-16T01:03:02.378Z,0
2019-04-16T01:04:02.362Z,0
2019-04-16T01:05:02.461Z,0
2019-04-16T01:06:06.716Z,0
2019-04-16T01:07:02.309Z,0
2019-04-16T01:08:02.413Z,0
2019-04-16T01:09:02.491Z,0
2019-04-16T01:10:02.589Z,0
2019-04-16T01:11:02.511Z,0
2019-04-16T01:12:02.747Z,0
2019-04-16T01:13:02.612Z,0
2019-04-16T01:14:02.631Z,0
2019-04-16T01:15:02.669Z,0
2019-04-16T01:16:03.860Z,0
2019-04-16T01:17:04.819Z,0
2019-04-16T01:18:04.511Z,0
2019-04-16T01:19:03.273Z,0
2019-04-16T01:20:04.098Z,0
2019-04-16T01:21:04.231Z,0
2019-04-16T01:22:04.271Z,0
2019-04-16T01:23:03.184Z,0
2019-04-16T01:24:03.236Z,0
2019-04-16T01:25:03.268Z,0
2019-04-16T01:26:03.323Z,0
2019-04-16T01:27:03.317Z,0
2019-04-16T01:28:03.426Z,0
2019-04-16T01:29:04.138Z,0
2019-04-16T01:30:05.905Z,0
2019-04-16T01:31:06.877Z,0
2019-04-16T01:32:03.776Z,0
2019-04-16T01:33:04.800Z,0
2019-04-16T01:34:04.740Z,0
2019-04-16T01:35:03.699Z,0
2019-04-16T01:36:03.724Z,0
2019-04-16T01:37:03.754Z,0
2019-04-16T01:38:03.901Z,0
2019-04-16T01:39:15.519Z,0
2019-04-16T01:40:04.756Z,0
2019-04-16T01:41:03.766Z,0
2019-04-16T01:42:03.799Z,0
2019-04-16T01:43:03.805Z,0
2019-04-16T01:44:03.877Z,0
2019-04-16T01:45:03.873Z,0
2019-04-16T01:46:03.915Z,0
2019-04-16T01:47:04.954Z,0
2019-04-16T01:48:06.631Z,0
2019-04-16T01:49:04.193Z,0
2019-04-16T01:50:05.287Z,0
2019-04-16T01:51:05.193Z,0
2019-04-16T01:52:05.302Z,0
2019-04-16T01:53:04.370Z,0
2019-04-16T01:54:04.407Z,0
2019-04-16T01:55:04.461Z,0
2019-04-16T01:56:04.479Z,0
2019-04-16T01:57:04.529Z,0
2019-04-16T01:58:04.538Z,0
2019-04-16T01:59:05.879Z,0
2019-04-16T02:00:07.780Z,0
2019-04-16T02:01:04.691Z,0
2019-04-16T02:02:05.893Z,0
2019-04-16T02:03:05.871Z,0
2019-04-16T02:04:04.908Z,0
2019-04-16T02:05:05.086Z,0
2019-04-16T02:06:05.156Z,0
2019-04-16T02:07:05.226Z,0
2019-04-16T02:08:05.376Z,0
2019-04-16T02:09:05.190Z,0
2019-04-16T02:10:07.739Z,0
2019-04-16T02:11:09.523Z,0
2019-04-16T02:12:05.475Z,0
2019-04-16T02:13:06.521Z,0
2019-04-16T02:14:06.635Z,0
2019-04-16T02:15:06.574Z,0
2019-04-16T02:16:05.890Z,0
2019-04-16T02:17:05.787Z,0
2019-04-16T02:18:05.824Z,0
2019-04-16T02:19:05.845Z,0
2019-04-16T02:20:07.048Z,0
2019-04-16T02:21:09.481Z,0
2019-04-16T02:22:05.997Z,0
2019-04-16T02:23:07.011Z,0
2019-04-16T02:24:07.055Z,0
2019-04-16T02:25:06.007Z,0
2019-04-16T02:26:06.050Z,0
2019-04-16T02:27:06.024Z,0
2019-04-16T02:28:06.135Z,0
2019-04-16T02:29:07.131Z,0
2019-04-16T02:30:06.310Z,0
2019-04-16T02:31:12.757Z,0
2019-04-16T02:32:07.354Z,0
2019-04-16T02:33:06.353Z,0
2019-04-16T02:34:06.386Z,0
2019-04-16T02:35:06.333Z,0
2019-04-16T02:36:06.363Z,0
2019-04-16T02:37:06.442Z,0
2019-04-16T02:38:10.345Z,0
2019-04-16T02:39:07.491Z,0
2019-04-16T02:40:06.552Z,0
2019-04-16T02:41:07.477Z,0
2019-04-16T02:42:06.502Z,0
2019-04-16T02:43:07.588Z,0
2019-04-16T02:44:06.588Z,0
2019-04-16T02:45:07.648Z,0
2019-04-16T02:46:06.767Z,0
2019-04-16T02:47:07.973Z,0
2019-04-16T02:48:06.890Z,0
2019-04-16T02:49:07.855Z,0
2019-04-16T02:50:06.945Z,0
2019-04-16T02:51:08.167Z,0
2019-04-16T02:52:06.895Z,0
2019-04-16T02:53:08.137Z,0
2019-04-16T02:54:07.085Z,0
2019-04-16T02:55:08.928Z,0
2019-04-16T02:56:07.218Z,0
2019-04-16T02:57:08.275Z,0
2019-04-16T02:58:07.240Z,0
2019-04-16T02:59:11.487Z,0
2019-04-16T03:00:07.325Z,0
2019-04-16T03:01:08.336Z,0
2019-04-16T03:02:07.353Z,0
2019-04-16T03:03:07.424Z,0
2019-04-16T03:04:07.438Z,0
2019-04-16T03:05:07.502Z,0
2019-04-16T03:06:07.591Z,0
2019-04-16T03:07:07.665Z,0
2019-04-16T03:08:07.786Z,0
2019-04-16T03:09:08.789Z,0
2019-04-16T03:10:11.956Z,0
2019-04-16T03:11:07.853Z,0
2019-04-16T03:12:08.875Z,0
2019-04-16T03:13:09.101Z,0
2019-04-16T03:14:08.071Z,0
2019-04-16T03:15:08.173Z,0
2019-04-16T03:16:08.302Z,0
2019-04-16T03:17:10.179Z,0
2019-04-16T03:18:08.448Z,0
2019-04-16T03:19:09.499Z,0
2019-04-16T03:20:09.725Z,0
2019-04-16T03:21:08.628Z,0
2019-04-16T03:22:08.513Z,0
2019-04-16T03:23:08.597Z,0
2019-04-16T03:24:09.624Z,0
2019-04-16T03:25:12.243Z,0
2019-04-16T03:26:08.733Z,0
2019-04-16T03:27:09.751Z,0
2019-04-16T03:28:08.730Z,0
2019-04-16T03:29:08.887Z,0
2019-04-16T03:30:08.989Z,0
2019-04-16T03:31:09.793Z,0
2019-04-16T03:32:13.280Z,0
2019-04-16T03:33:13.016Z,0
2019-04-16T03:34:10.291Z,0
2019-04-16T03:35:10.308Z,0
2019-04-16T03:36:09.252Z,0
2019-04-16T03:37:09.337Z,0
2019-04-16T03:38:09.416Z,0
2019-04-16T03:39:13.145Z,0
2019-04-16T03:40:16.817Z,0
2019-04-16T03:41:10.649Z,0
2019-04-16T03:42:09.654Z,0
2019-04-16T03:43:09.540Z,0
2019-04-16T03:44:09.620Z,0
2019-04-16T03:45:09.923Z,0
2019-04-16T03:46:12.700Z,0
2019-04-16T03:47:09.970Z,0
2019-04-16T03:48:10.956Z,0
2019-04-16T03:49:10.094Z,0
2019-04-16T03:50:10.418Z,0
2019-04-16T03:51:10.375Z,0
2019-04-16T03:52:10.423Z,0
2019-04-16T03:53:10.563Z,0
2019-04-16T03:54:11.527Z,0
2019-04-16T03:55:11.866Z,0
2019-04-16T03:56:10.571Z,0
2019-04-16T03:57:10.705Z,0
2019-04-16T03:58:10.728Z,0
2019-04-16T03:59:12.131Z,0
2019-04-16T04:00:12.564Z,0
2019-04-16T04:01:13.997Z,0
2019-04-16T04:02:11.011Z,0
2019-04-16T04:03:12.165Z,0
2019-04-16T04:04:11.031Z,0
2019-04-16T04:05:11.152Z,0
2019-04-16T04:06:11.177Z,0
2019-04-16T04:07:11.978Z,0
2019-04-16T04:08:16.045Z,0
2019-04-16T04:09:11.302Z,0
2019-04-16T04:10:12.291Z,0
2019-04-16T04:11:12.411Z,0
2019-04-16T04:12:12.721Z,0
2019-04-16T04:13:11.676Z,0
2019-04-16T04:14:12.644Z,1
2019-04-16T04:15:12.749Z,0
2019-04-16T04:16:11.926Z,0
2019-04-16T04:17:11.830Z,0
2019-04-16T04:18:12.845Z,1
2019-04-16T04:19:15.078Z,1
2019-04-16T04:20:14.549Z,0
2019-04-16T04:21:13.102Z,1
2019-04-16T04:22:13.151Z,1
2019-04-16T04:23:12.431Z,1
2019-04-16T04:24:12.379Z,1
2019-04-16T04:25:12.405Z,1
2019-04-16T04:26:12.456Z,2
2019-04-16T04:27:13.915Z,1
2019-04-16T04:28:12.550Z,2
2019-04-16T04:29:13.538Z,2
2019-04-16T04:30:13.809Z,3
2019-04-16T04:31:12.781Z,3
2019-04-16T04:32:12.809Z,4
2019-04-16T04:33:12.811Z,4
2019-04-16T04:34:15.328Z,4
2019-04-16T04:35:13.166Z,4
2019-04-16T04:36:14.104Z,5
2019-04-16T04:37:14.158Z,6
2019-04-16T04:38:13.433Z,6
2019-04-16T04:39:15.372Z,7
2019-04-16T04:40:15.815Z,7
2019-04-16T04:41:13.629Z,8
2019-04-16T04:42:18.453Z,8
2019-04-16T04:43:13.732Z,8
2019-04-16T04:44:13.850Z,9
2019-04-16T04:45:13.692Z,9
2019-04-16T04:46:15.159Z,11
2019-04-16T04:47:15.466Z,12
2019-04-16T04:48:13.942Z,12
2019-04-16T04:49:15.265Z,13
2019-04-16T04:50:14.076Z,13
2019-04-16T04:51:14.073Z,15
2019-04-16T04:52:14.921Z,15
2019-04-16T04:53:15.556Z,16
2019-04-16T04:54:15.252Z,17
2019-04-16T04:55:15.369Z,18
2019-04-16T04:56:18.753Z,18
2019-04-16T04:57:14.632Z,21
2019-04-16T04:58:14.756Z,22
2019-04-16T04:59:14.629Z,21
2019-04-16T05:00:14.634Z,25
2019-04-16T05:01:14.673Z,24
2019-04-16T05:02:15.425Z,25
2019-04-16T05:03:15.472Z,27
2019-04-16T05:04:18.836Z,28
2019-04-16T05:05:14.961Z,29
2019-04-16T05:06:15.968Z,30
2019-04-16T05:07:16.043Z,31
2019-04-16T05:08:15.089Z,32
2019-04-16T05:09:15.501Z,33
2019-04-16T05:10:15.216Z,34
2019-04-16T05:11:16.450Z,35
2019-04-16T05:12:17.754Z,36
2019-04-16T05:13:15.221Z,37
2019-04-16T05:14:16.288Z,38
2019-04-16T05:15:16.525Z,39
2019-04-16T05:16:15.428Z,40
2019-04-16T05:17:15.524Z,42
2019-04-16T05:18:15.616Z,42
2019-04-16T05:19:15.846Z,44
2019-04-16T05:20:16.417Z,44
2019-04-16T05:21:18.644Z,46
2019-04-16T05:22:20.538Z,47
2019-04-16T05:23:15.893Z,48
2019-04-16T05:24:17.227Z,49
2019-04-16T05:25:16.022Z,49
2019-04-16T05:26:16.292Z,50
2019-04-16T05:27:16.103Z,51
2019-04-16T05:28:16.046Z,52
2019-04-16T05:29:18.053Z,53
2019-04-16T05:30:19.815Z,54
2019-04-16T05:31:16.273Z,54
2019-04-16T05:32:17.297Z,56
2019-04-16T05:33:17.433Z,56
2019-04-16T05:34:17.848Z,57
2019-04-16T05:35:16.493Z,59
2019-04-16T05:36:20.587Z,59
2019-04-16T05:37:19.492Z,60
2019-04-16T05:38:16.936Z,61
2019-04-16T05:39:17.937Z,62
2019-04-16T05:40:18.289Z,63
2019-04-16T05:41:21.892Z,63
2019-04-16T05:42:17.085Z,65
2019-04-16T05:43:18.157Z,66
2019-04-16T05:44:18.377Z,66
2019-04-16T05:45:18.202Z,66
2019-04-16T05:46:17.209Z,67
2019-04-16T05:47:18.594Z,68
2019-04-16T05:48:21.572Z,68
2019-04-16T05:49:18.065Z,69
2019-04-16T05:50:18.412Z,70
2019-04-16T05:51:19.147Z,71
2019-04-16T05:52:18.518Z,72
2019-04-16T05:53:17.697Z,73
2019-04-16T05:54:17.534Z,74
2019-04-16T05:55:18.997Z,75
2019-04-16T05:56:20.153Z,76
2019-04-16T05:57:19.137Z,77
2019-04-16T05:58:18.899Z,78
2019-04-16T05:59:19.026Z,79
2019-04-16T06:00:18.083Z,80
2019-04-16T06:01:19.430Z,79
2019-04-16T06:02:19.580Z,81
2019-04-16T06:03:21.597Z,82
2019-04-16T06:04:18.525Z,83
2019-04-16T06:05:19.321Z,84
2019-04-16T06:06:19.435Z,85
2019-04-16T06:07:23.195Z,85
2019-04-16T06:08:18.969Z,86
2019-04-16T06:09:18.821Z,87
2019-04-16T06:10:19.151Z,88
2019-04-16T06:11:28.013Z,88
2019-04-16T06:12:20.118Z,89
2019-04-16T06:13:18.722Z,89
2019-04-16T06:14:19.268Z,89
2019-04-16T06:15:22.057Z,91
2019-04-16T06:16:23.874Z,92
2019-04-16T06:17:18.789Z,93
2019-04-16T06:18:23.905Z,95
2019-04-16T06:19:20.677Z,97
2019-04-16T06:20:20.984Z,98
2019-04-16T06:21:19.298Z,100
2019-04-16T06:22:20.350Z,99
2019-04-16T06:23:20.292Z,99
2019-04-16T06:24:21.055Z,101
2019-04-16T06:25:19.858Z,102
2019-04-16T06:26:19.431Z,101
2019-04-16T06:27:19.480Z,103
2019-04-16T06:28:19.354Z,103
2019-04-16T06:29:19.934Z,104
2019-04-16T06:30:20.788Z,106
2019-04-16T06:31:21.401Z,106
2019-04-16T06:32:21.418Z,107
2019-04-16T06:33:21.583Z,109
2019-04-16T06:34:23.616Z,152
2019-04-16T06:35:19.977Z,111
2019-04-16T06:36:20.252Z,112
2019-04-16T06:37:22.250Z,112
2019-04-16T06:38:21.373Z,113
2019-04-16T06:39:20.445Z,114
2019-04-16T06:40:21.373Z,114
2019-04-16T06:41:21.277Z,115
2019-04-16T06:42:22.727Z,116
2019-04-16T06:43:25.081Z,117
2019-04-16T06:44:20.857Z,117
2019-04-16T06:45:21.437Z,118
2019-04-16T06:46:20.436Z,119
2019-04-16T06:47:20.453Z,119
2019-04-16T06:48:20.597Z,119
2019-04-16T06:49:22.111Z,120
2019-04-16T06:50:31.015Z,121
2019-04-16T06:51:21.824Z,122
2019-04-16T06:52:20.744Z,123
2019-04-16T06:53:23.463Z,123
2019-04-16T06:54:21.450Z,125
2019-04-16T06:55:21.444Z,125
2019-04-16T06:56:20.840Z,124
2019-04-16T06:57:20.910Z,124
2019-04-16T06:58:20.811Z,147
2019-04-16T06:59:21.454Z,147
2019-04-16T07:00:22.202Z,149
2019-04-16T07:01:22.566Z,83
2019-04-16T07:02:23.935Z,86
2019-04-16T07:03:25.745Z,86
2019-04-16T07:04:21.293Z,86
2019-04-16T07:05:22.011Z,86
2019-04-16T07:06:23.361Z,87
2019-04-16T07:07:22.052Z,87
2019-04-16T07:08:36.314Z,88
2019-04-16T07:09:25.161Z,88
2019-04-16T07:10:22.111Z,88
2019-04-16T07:11:22.499Z,88
2019-04-16T07:12:21.127Z,88
2019-04-16T07:13:21.234Z,88
2019-04-16T07:14:21.282Z,88
2019-04-16T07:15:23.680Z,88
2019-04-16T07:16:22.243Z,87
2019-04-16T07:17:21.493Z,87
2019-04-16T07:18:22.414Z,87
2019-04-16T07:19:22.620Z,87
2019-04-16T07:20:21.568Z,88
2019-04-16T07:21:36.713Z,91
2019-04-16T07:22:38.378Z,89
2019-04-16T07:23:36.592Z,88
2019-04-16T07:24:37.824Z,89
2019-04-16T07:25:41.220Z,88
2019-04-16T07:26:39.008Z,89
2019-04-16T07:30:04.578Z,93
2019-04-16T07:30:59.854Z,91
2019-04-16T07:32:00.402Z,90
2019-04-16T07:33:00.793Z,90
2019-04-16T07:33:59.862Z,91
2019-04-16T07:35:01.800Z,91
2019-04-16T07:36:00.507Z,90
2019-04-16T07:37:00.407Z,90
2019-04-16T07:38:04.879Z,90
2019-04-16T07:39:04.995Z,91
2019-04-16T07:40:00.449Z,92
2019-04-16T07:41:01.376Z,91
2019-04-16T07:42:10.029Z,93
2019-04-16T07:43:05.699Z,94
2019-04-16T07:44:04.016Z,95
2019-04-16T07:45:00.761Z,95
2019-04-16T07:46:05.637Z,94
2019-04-16T07:47:05.949Z,94
2019-04-16T07:48:06.368Z,93
2019-04-16T07:49:00.916Z,93
2019-04-16T07:50:02.173Z,95
2019-04-16T07:51:06.174Z,94
2019-04-16T07:52:14.638Z,94
2019-04-16T07:53:01.854Z,98
2019-04-16T07:54:02.615Z,151
2019-04-16T07:55:03.500Z,152
2019-04-16T07:56:05.653Z,152
2019-04-16T07:57:05.251Z,155
2019-04-16T07:58:02.495Z,156
2019-04-16T07:59:01.846Z,155
2019-04-16T08:00:08.131Z,158
2019-04-16T08:01:01.313Z,156
2019-04-16T08:02:02.116Z,158
2019-04-16T08:03:02.346Z,159
2019-04-16T08:04:02.597Z,158
2019-04-16T08:05:00.409Z,159
2019-04-16T08:06:01.840Z,160
2019-04-16T08:07:03.139Z,157
2019-04-16T08:08:00.491Z,159
2019-04-16T08:09:01.559Z,162
2019-04-16T08:10:02.924Z,162
2019-04-16T08:11:05.346Z,162
2019-04-16T08:12:02.330Z,163
2019-04-16T08:13:03.333Z,166
2019-04-16T08:14:02.530Z,164
2019-04-16T08:15:13.211Z,165
2019-04-16T08:16:02.850Z,166
2019-04-16T08:17:04.805Z,165
2019-04-16T08:18:02.517Z,161
2019-04-16T08:19:00.809Z,166
2019-04-16T08:20:02.385Z,162
2019-04-16T08:21:09.269Z,165
2019-04-16T08:22:02.030Z,166
2019-04-16T08:23:01.673Z,165
2019-04-16T08:24:02.352Z,169
2019-04-16T08:25:03.171Z,168
2019-04-16T08:26:04.248Z,170
2019-04-16T08:27:01.961Z,172
2019-04-16T08:28:06.428Z,171
2019-04-16T08:29:02.708Z,174
2019-04-16T08:30:04.216Z,174
2019-04-16T08:31:10.449Z,175
2019-04-16T08:32:03.225Z,180
2019-04-16T08:33:02.935Z,180
2019-04-16T08:34:04.629Z,176
2019-04-16T08:35:03.878Z,178
2019-04-16T08:36:02.823Z,182
2019-04-16T08:37:02.115Z,176
2019-04-16T08:38:00.954Z,178
2019-04-16T08:39:05.793Z,177
2019-04-16T08:40:01.894Z,176
2019-04-16T08:41:02.587Z,176
2019-04-16T08:42:03.729Z,177
2019-04-16T08:43:02.410Z,176
2019-04-16T08:44:03.392Z,176
2019-04-16T08:45:08.371Z,176
2019-04-16T08:46:11.469Z,177
2019-04-16T08:47:02.784Z,176
2019-04-16T08:48:05.312Z,174
2019-04-16T08:49:04.668Z,175
2019-04-16T08:50:04.783Z,175
2019-04-16T08:51:04.853Z,179
2019-04-16T08:52:11.095Z,179
2019-04-16T08:53:03.381Z,183
2019-04-16T08:54:04.532Z,178
2019-04-16T08:55:05.864Z,180
2019-04-16T08:56:09.134Z,181
2019-04-16T08:57:02.515Z,180
2019-04-16T08:58:06.296Z,182
2019-04-16T08:59:03.654Z,182
2019-04-16T09:00:02.211Z,184
2019-04-16T09:01:02.857Z,181
2019-04-16T09:02:03.126Z,181
2019-04-16T09:03:04.424Z,181
2019-04-16T09:04:15.936Z,182
2019-04-16T09:05:13.444Z,180
2019-04-16T09:06:27.238Z,181
2019-04-16T09:07:11.036Z,181
2019-04-16T09:08:12.113Z,178
2019-04-16T09:09:12.202Z,179
2019-04-16T09:10:16.865Z,178
2019-04-16T09:11:04.487Z,180
2019-04-16T09:12:07.674Z,181
2019-04-16T09:13:03.650Z,180
2019-04-16T09:14:02.411Z,182
2019-04-16T09:15:01.956Z,184
2019-04-16T09:16:01.922Z,187
2019-04-16T09:17:03.262Z,183
2019-04-16T09:18:02.214Z,184
2019-04-16T09:19:02.224Z,184
2019-04-16T09:20:05.108Z,185
2019-04-16T09:21:03.339Z,183
2019-04-16T09:22:06.016Z,184
2019-04-16T09:23:04.323Z,185
2019-04-16T09:24:07.951Z,184
2019-04-16T09:25:04.946Z,184
2019-04-16T09:26:12.845Z,185
2019-04-16T09:27:12.963Z,185
2019-04-16T09:28:07.210Z,186
2019-04-16T09:29:09.236Z,186
2019-04-16T09:30:02.280Z,187
2019-04-16T09:31:05.936Z,186
2019-04-16T09:32:02.431Z,188
2019-04-16T09:33:03.269Z,186
2019-04-16T09:34:07.891Z,187
2019-04-16T09:35:09.467Z,189
2019-04-16T09:36:04.468Z,189
2019-04-16T09:39:00.621Z,189
2019-04-16T09:39:26.741Z,196
2019-04-16T09:40:27.370Z,191
2019-04-16T09:41:21.500Z,195
2019-04-16T09:42:41.514Z,193
2019-04-16T09:43:30.872Z,190
2019-04-16T09:44:18.883Z,195
2019-04-16T09:45:19.840Z,193
2019-04-16T09:46:23.307Z,193
2019-04-16T09:47:19.268Z,193
2019-04-16T09:48:19.904Z,193
2019-04-16T09:49:18.698Z,193
2019-04-16T09:50:18.166Z,206
2019-04-16T09:51:20.126Z,208
2019-04-16T09:52:22.926Z,209
2019-04-16T09:53:18.099Z,205
2019-04-16T09:54:19.127Z,206
2019-04-16T09:55:19.314Z,207
2019-04-16T09:56:19.649Z,211
2019-04-16T09:57:20.608Z,210
2019-04-16T09:58:21.941Z,215
2019-04-16T09:59:23.204Z,214
2019-04-16T10:00:20.392Z,215
2019-04-16T10:01:19.166Z,214
2019-04-16T10:02:18.909Z,211
2019-04-16T10:03:19.564Z,211
2019-04-16T10:04:19.563Z,207
2019-04-16T10:05:18.889Z,213
2019-04-16T10:06:19.761Z,207
2019-04-16T10:07:19.141Z,210
2019-04-16T10:08:19.146Z,209
2019-04-16T10:09:21.566Z,217
2019-04-16T10:10:18.996Z,220
2019-04-16T10:11:19.540Z,214
2019-04-16T10:12:18.486Z,215
2019-04-16T10:13:29.867Z,218
2019-04-16T10:14:19.360Z,218
2019-04-16T10:15:18.412Z,219
2019-04-16T10:16:18.936Z,221
2019-04-16T10:17:19.361Z,219
2019-04-16T10:18:18.500Z,219
2019-04-16T10:19:21.173Z,219
2019-04-16T10:20:18.446Z,226
2019-04-16T10:21:19.606Z,225
2019-04-16T10:22:19.868Z,225
2019-04-16T10:23:18.972Z,217
2019-04-16T10:24:18.614Z,217
2019-04-16T10:25:19.151Z,209
2019-04-16T10:26:19.018Z,231
2019-04-16T10:27:18.644Z,229
2019-04-16T10:28:19.656Z,230
2019-04-16T10:29:19.025Z,230
2019-04-16T10:30:19.171Z,231
2019-04-16T10:31:19.086Z,232
2019-04-16T10:32:18.840Z,234
2019-04-16T10:33:18.973Z,232
2019-04-16T10:34:20.197Z,233
2019-04-16T10:35:19.317Z,234
2019-04-16T10:36:18.763Z,234
2019-04-16T10:37:19.786Z,234
2019-04-16T10:38:18.972Z,234
2019-04-16T10:39:19.285Z,238
2019-04-16T10:40:19.829Z,235
2019-04-16T10:41:19.422Z,236
2019-04-16T10:42:18.981Z,238
2019-04-16T10:43:19.695Z,239
2019-04-16T10:44:31.840Z,239
2019-04-16T10:46:49.738Z,246
2019-04-16T10:48:49.968Z,245
2019-04-16T10:49:50.591Z,237
2019-04-16T10:50:50.569Z,239
2019-04-16T10:51:49.235Z,240
2019-04-16T10:52:53.944Z,241
2019-04-16T10:53:50.216Z,238
2019-04-16T10:54:51.794Z,239
2019-04-16T10:55:49.113Z,239
2019-04-16T10:57:43.181Z,240
2019-04-16T10:57:59.038Z,247
2019-04-16T10:58:59.471Z,242
2019-04-16T10:59:58.460Z,239
2019-04-16T11:00:58.523Z,242
2019-04-16T11:06:40.825Z,252
2019-04-16T11:07:39.137Z,248
2019-04-16T11:08:38.950Z,250
2019-04-16T11:09:38.939Z,251
2019-04-16T11:10:39.492Z,248
2019-04-16T11:11:41.558Z,251
2019-04-16T11:12:40.097Z,257
2019-04-16T11:13:39.406Z,253
2019-04-16T11:14:58.865Z,251
2019-04-16T11:16:22.596Z,255
2019-04-16T11:17:10.159Z,244
2019-04-16T11:18:09.237Z,246
2019-04-16T11:19:09.120Z,252
2019-04-16T11:20:11.558Z,252
2019-04-16T11:21:09.051Z,255
2019-04-16T11:22:11.007Z,252
2019-04-16T11:23:09.312Z,253
2019-04-16T11:24:09.198Z,254
2019-04-16T11:25:08.963Z,255
2019-04-16T11:26:09.250Z,253
2019-04-16T11:27:10.155Z,253
2019-04-16T11:28:09.694Z,253
2019-04-16T11:29:08.937Z,256
2019-04-16T11:30:08.901Z,256
2019-04-16T11:31:10.363Z,257
2019-04-16T11:32:08.997Z,258
2019-04-16T11:33:09.404Z,256
2019-04-16T11:34:09.716Z,258
2019-04-16T11:35:09.085Z,255
2019-04-16T11:37:10.485Z,256
2019-04-16T11:38:08.760Z,258
2019-04-16T11:39:10.095Z,249
2019-04-16T11:40:10.276Z,249
2019-04-16T11:41:46.567Z,247
2019-04-16T11:42:09.323Z,247
2019-04-16T11:43:09.146Z,248
2019-04-16T11:44:15.415Z,250
2019-04-16T11:45:09.484Z,249
2019-04-16T11:46:08.999Z,248
2019-04-16T11:47:10.619Z,251
2019-04-16T11:48:08.780Z,250
2019-04-16T11:49:09.653Z,250
2019-04-16T11:50:11.047Z,252
2019-04-16T11:51:09.789Z,255
2019-04-16T11:52:10.834Z,254
2019-04-16T11:53:09.838Z,253
2019-04-16T11:54:11.380Z,256
2019-04-16T11:55:09.614Z,259
2019-04-16T11:56:08.779Z,262
2019-04-16T11:57:08.843Z,261
2019-04-16T11:58:08.412Z,260
2019-04-16T11:59:08.452Z,258
2019-04-16T12:00:08.901Z,259
2019-04-16T12:01:09.977Z,255
2019-04-16T12:02:09.604Z,258
2019-04-16T12:03:09.741Z,257
2019-04-16T12:04:10.855Z,256
2019-04-16T12:05:09.639Z,254
2019-04-16T12:06:10.029Z,257
2019-04-16T12:07:09.309Z,259
2019-04-16T12:08:09.259Z,257
2019-04-16T12:09:08.251Z,256
2019-04-16T12:10:09.351Z,261
2019-04-16T12:11:08.479Z,269
2019-04-16T12:12:08.212Z,259
2019-04-16T12:13:08.105Z,261
2019-04-16T12:14:09.939Z,266
2019-04-16T12:15:09.293Z,266
2019-04-16T12:16:08.097Z,267
2019-04-16T12:17:08.278Z,271
2019-04-16T12:18:07.884Z,273
2019-04-16T12:19:07.955Z,272
2019-04-16T12:20:08.088Z,271
2019-04-16T12:21:07.853Z,269
2019-04-16T12:22:08.187Z,271
2019-04-16T12:23:08.094Z,274
2019-04-16T12:24:07.830Z,272
2019-04-16T12:25:08.058Z,277
2019-04-16T12:26:09.386Z,268
2019-04-16T12:27:08.974Z,274
2019-04-16T12:28:11.530Z,265
2019-04-16T12:29:08.638Z,265
2019-04-16T12:30:07.817Z,269
2019-04-16T12:31:08.298Z,266
2019-04-16T12:32:09.104Z,270
2019-04-16T12:33:09.168Z,264
2019-04-16T12:34:07.916Z,260
2019-04-16T12:35:07.502Z,269
2019-04-16T12:36:12.728Z,266
2019-04-16T12:37:07.659Z,275
2019-04-16T12:38:11.917Z,269
2019-04-16T12:39:08.825Z,278
2019-04-16T12:40:08.313Z,278
2019-04-16T12:41:08.292Z,280
2019-04-16T12:42:08.034Z,281
2019-04-16T12:43:08.494Z,280
2019-04-16T12:44:09.317Z,281
2019-04-16T12:45:08.883Z,281
2019-04-16T12:46:07.706Z,278
2019-04-16T12:47:07.468Z,281
2019-04-16T12:48:07.885Z,286
2019-04-16T12:49:07.423Z,290
2019-04-16T12:50:07.664Z,288
2019-04-16T12:51:08.212Z,290
2019-04-16T12:52:07.341Z,289
2019-04-16T12:53:08.532Z,289
2019-04-16T12:54:07.535Z,288
2019-04-16T12:55:07.981Z,281
2019-04-16T12:56:08.536Z,280
2019-04-16T12:57:10.202Z,281
2019-04-16T12:58:07.879Z,285
2019-04-16T12:59:08.509Z,287
2019-04-16T13:00:06.731Z,291
2019-04-16T13:01:06.868Z,295
2019-04-16T13:02:09.300Z,294
2019-04-16T13:03:09.194Z,292
2019-04-16T13:04:07.367Z,289
2019-04-16T13:05:07.877Z,289
2019-04-16T13:06:06.313Z,290
2019-04-16T13:07:06.438Z,286
2019-04-16T13:08:06.479Z,287
2019-04-16T13:09:06.238Z,287
2019-04-16T13:10:06.353Z,288
2019-04-16T13:11:08.441Z,284
2019-04-16T13:12:09.340Z,283
2019-04-16T13:13:06.385Z,280
2019-04-16T13:14:06.673Z,270
2019-04-16T13:15:08.555Z,267
2019-04-16T13:16:07.627Z,265
2019-04-16T13:17:07.781Z,257
2019-04-16T13:18:07.688Z,264
2019-04-16T13:19:07.301Z,247
2019-04-16T13:20:06.564Z,254
2019-04-16T13:21:08.309Z,266
2019-04-16T13:22:06.243Z,255
2019-04-16T13:23:06.730Z,240
2019-04-16T13:24:06.046Z,235
2019-04-16T13:25:07.183Z,237
2019-04-16T13:26:05.830Z,240
2019-04-16T13:27:06.990Z,261
2019-04-16T13:28:05.782Z,236
2019-04-16T13:29:06.862Z,252
2019-04-16T13:30:07.099Z,238
2019-04-16T13:31:06.204Z,253
2019-04-16T13:32:06.810Z,270
2019-04-16T13:33:06.682Z,261
2019-04-16T13:34:05.817Z,255
2019-04-16T13:35:05.881Z,268
2019-04-16T13:36:06.058Z,267
2019-04-16T13:37:06.129Z,265
2019-04-16T13:38:09.181Z,267
2019-04-16T13:39:07.563Z,266
2019-04-16T13:40:06.408Z,268
2019-04-16T13:41:05.513Z,267
2019-04-16T13:42:05.380Z,266
2019-04-16T13:43:06.772Z,267
2019-04-16T13:44:08.949Z,265
2019-04-16T13:45:16.554Z,260
2019-04-16T13:46:06.887Z,265
2019-04-16T13:47:05.231Z,263
2019-04-16T13:48:15.179Z,256
2019-04-16T13:49:06.508Z,251
2019-04-16T13:50:06.229Z,251
2019-04-16T13:51:05.336Z,242
2019-04-16T13:52:06.851Z,241
2019-04-16T13:53:05.298Z,249
2019-04-16T13:54:05.827Z,247
2019-04-16T13:55:09.459Z,243
2019-04-16T13:56:06.112Z,232
2019-04-16T13:57:06.075Z,212
2019-04-16T13:58:06.090Z,207
2019-04-16T13:59:05.446Z,213
2019-04-16T14:00:05.790Z,208
2019-04-16T14:01:08.516Z,207
2019-04-16T14:02:06.098Z,219
2019-04-16T14:03:05.964Z,217
2019-04-16T14:04:05.750Z,215
2019-04-16T14:05:05.410Z,209
2019-04-16T14:06:09.293Z,203
2019-04-16T14:07:05.443Z,215
2019-04-16T14:08:05.852Z,218
2019-04-16T14:09:07.511Z,225
2019-04-16T14:10:05.105Z,219
2019-04-16T14:11:05.019Z,216
2019-04-16T14:12:05.065Z,214
2019-04-16T14:13:05.907Z,212
2019-04-16T14:14:07.424Z,212
2019-04-16T14:15:06.401Z,210
2019-04-16T14:16:05.594Z,207
2019-04-16T14:17:09.573Z,212
2019-04-16T14:18:04.972Z,219
2019-04-16T14:19:06.934Z,220
2019-04-16T14:20:04.533Z,220
2019-04-16T14:21:05.672Z,223
2019-04-16T14:22:05.139Z,216
2019-04-16T14:23:04.737Z,215